sensor_id;sensor_type;location;lat;lon;timestamp;P1;durP1;ratioP1;P2;durP2;ratioP2
50976;SDS011;36992;48.200;12.418;2022-12-07T00:02:24;6.80;;;2.75;;
50976;SDS011;36992;48.200;12.418;2022-12-07T00:04:50;5.60;;;2.90;;
50976;SDS011;36992;48.200;12.418;2022-12-07T00:07:17;4.60;;;2.63;;
50976;SDS011;36992;48.200;12.418;2022-12-07T00:09:43;7.70;;;2.97;;
50976;SDS011;36992;48.200;12.418;2022-12-07T00:12:10;4.80;;;2.58;;
50976;SDS011;36992;48.200;12.418;2022-12-07T00:14:38;4.82;;;3.00;;
50976;SDS011;36992;48.200;12.418;2022-12-07T00:17:04;3.92;;;2.55;;
50976;SDS011;36992;48.200;12.418;2022-12-07T00:19:31;5.43;;;2.22;;
50976;SDS011;36992;48.200;12.418;2022-12-07T00:21:57;4.15;;;1.85;;
50976;SDS011;36992;48.200;12.418;2022-12-07T00:24:24;4.88;;;2.42;;
50976;SDS011;36992;48.200;12.418;2022-12-07T00:26:50;5.15;;;2.08;;
50976;SDS011;36992;48.200;12.418;2022-12-07T00:29:18;3.67;;;2.08;;
50976;SDS011;36992;48.200;12.418;2022-12-07T00:31:48;4.97;;;2.42;;
50976;SDS011;36992;48.200;12.418;2022-12-07T00:34:15;4.13;;;2.00;;
50976;SDS011;36992;48.200;12.418;2022-12-07T00:36:43;4.55;;;2.90;;
50976;SDS011;36992;48.200;12.418;2022-12-07T00:39:10;4.68;;;2.58;;
50976;SDS011;36992;48.200;12.418;2022-12-07T00:41:37;4.15;;;2.03;;
50976;SDS011;36992;48.200;12.418;2022-12-07T00:44:03;5.55;;;2.90;;
50976;SDS011;36992;48.200;12.418;2022-12-07T00:46:30;5.55;;;2.70;;
50976;SDS011;36992;48.200;12.418;2022-12-07T00:48:58;5.30;;;2.88;;
50976;SDS011;36992;48.200;12.418;2022-12-07T00:51:25;5.07;;;2.28;;
50976;SDS011;36992;48.200;12.418;2022-12-07T00:53:52;3.65;;;2.05;;
50976;SDS011;36992;48.200;12.418;2022-12-07T00:56:19;5.50;;;1.85;;
50976;SDS011;36992;48.200;12.418;2022-12-07T00:58:51;4.47;;;2.22;;
50976;SDS011;36992;48.200;12.418;2022-12-07T01:01:19;3.75;;;1.90;;
50976;SDS011;36992;48.200;12.418;2022-12-07T01:03:46;3.35;;;2.08;;
50976;SDS011;36992;48.200;12.418;2022-12-07T01:06:15;4.40;;;2.30;;
50976;SDS011;36992;48.200;12.418;2022-12-07T01:08:42;4.18;;;2.35;;
50976;SDS011;36992;48.200;12.418;2022-12-07T01:11:09;3.83;;;1.98;;
50976;SDS011;36992;48.200;12.418;2022-12-07T01:13:38;3.40;;;1.83;;
50976;SDS011;36992;48.200;12.418;2022-12-07T01:16:05;4.45;;;2.10;;
50976;SDS011;36992;48.200;12.418;2022-12-07T01:18:33;3.03;;;1.70;;
50976;SDS011;36992;48.200;12.418;2022-12-07T01:21:01;5.00;;;2.22;;
50976;SDS011;36992;48.200;12.418;2022-12-07T01:23:31;3.75;;;1.77;;
50976;SDS011;36992;48.200;12.418;2022-12-07T01:25:59;9.35;;;3.22;;
50976;SDS011;36992;48.200;12.418;2022-12-07T01:28:28;4.22;;;2.00;;
50976;SDS011;36992;48.200;12.418;2022-12-07T01:30:55;5.25;;;2.95;;
50976;SDS011;36992;48.200;12.418;2022-12-07T01:33:23;3.70;;;1.95;;
50976;SDS011;36992;48.200;12.418;2022-12-07T01:35:50;3.70;;;1.60;;
50976;SDS011;36992;48.200;12.418;2022-12-07T01:38:16;3.17;;;1.73;;
50976;SDS011;36992;48.200;12.418;2022-12-07T01:40:44;6.57;;;2.42;;
50976;SDS011;36992;48.200;12.418;2022-12-07T01:43:14;3.95;;;1.88;;
50976;SDS011;36992;48.200;12.418;2022-12-07T01:45:43;3.42;;;1.55;;
50976;SDS011;36992;48.200;12.418;2022-12-07T01:48:11;3.45;;;1.52;;
50976;SDS011;36992;48.200;12.418;2022-12-07T01:50:41;3.88;;;1.85;;
50976;SDS011;36992;48.200;12.418;2022-12-07T01:53:09;2.97;;;1.42;;
50976;SDS011;36992;48.200;12.418;2022-12-07T01:55:38;4.60;;;1.75;;
50976;SDS011;36992;48.200;12.418;2022-12-07T01:58:09;5.07;;;2.42;;
50976;SDS011;36992;48.200;12.418;2022-12-07T02:00:37;4.15;;;2.28;;
50976;SDS011;36992;48.200;12.418;2022-12-07T02:03:04;3.50;;;2.00;;
50976;SDS011;36992;48.200;12.418;2022-12-07T02:05:35;4.40;;;2.28;;
50976;SDS011;36992;48.200;12.418;2022-12-07T02:08:04;4.25;;;2.30;;
50976;SDS011;36992;48.200;12.418;2022-12-07T02:10:32;2.58;;;1.50;;
50976;SDS011;36992;48.200;12.418;2022-12-07T02:12:59;2.90;;;1.48;;
50976;SDS011;36992;48.200;12.418;2022-12-07T02:15:32;2.33;;;1.17;;
50976;SDS011;36992;48.200;12.418;2022-12-07T02:18:09;3.20;;;1.52;;
50976;SDS011;36992;48.200;12.418;2022-12-07T02:20:46;3.25;;;1.60;;
50976;SDS011;36992;48.200;12.418;2022-12-07T02:26:54;3.70;;;1.92;;
50976;SDS011;36992;48.200;12.418;2022-12-07T02:29:31;2.60;;;1.40;;
50976;SDS011;36992;48.200;12.418;2022-12-07T02:32:03;2.90;;;1.60;;
50976;SDS011;36992;48.200;12.418;2022-12-07T02:34:37;4.30;;;2.17;;
50976;SDS011;36992;48.200;12.418;2022-12-07T02:37:12;2.95;;;1.65;;
50976;SDS011;36992;48.200;12.418;2022-12-07T02:39:46;3.57;;;1.93;;
50976;SDS011;36992;48.200;12.418;2022-12-07T02:42:19;2.85;;;1.60;;
50976;SDS011;36992;48.200;12.418;2022-12-07T02:44:52;2.67;;;1.33;;
50976;SDS011;36992;48.200;12.418;2022-12-07T02:47:19;3.17;;;1.67;;
50976;SDS011;36992;48.200;12.418;2022-12-07T02:49:48;3.15;;;1.58;;
50976;SDS011;36992;48.200;12.418;2022-12-07T02:52:15;3.53;;;1.63;;
50976;SDS011;36992;48.200;12.418;2022-12-07T02:54:42;3.10;;;1.90;;
50976;SDS011;36992;48.200;12.418;2022-12-07T02:57:22;5.15;;;2.80;;
50976;SDS011;36992;48.200;12.418;2022-12-07T03:00:02;3.63;;;1.50;;
50976;SDS011;36992;48.200;12.418;2022-12-07T03:02:35;3.95;;;1.98;;
50976;SDS011;36992;48.200;12.418;2022-12-07T03:05:12;3.67;;;1.83;;
50976;SDS011;36992;48.200;12.418;2022-12-07T03:07:54;4.55;;;2.45;;
50976;SDS011;36992;48.200;12.418;2022-12-07T03:10:28;5.28;;;2.50;;
50976;SDS011;36992;48.200;12.418;2022-12-07T03:13:02;3.85;;;2.10;;
50976;SDS011;36992;48.200;12.418;2022-12-07T03:15:38;4.35;;;2.40;;
50976;SDS011;36992;48.200;12.418;2022-12-07T03:18:09;3.30;;;1.63;;
50976;SDS011;36992;48.200;12.418;2022-12-07T03:20:39;4.95;;;2.63;;
50976;SDS011;36992;48.200;12.418;2022-12-07T03:23:08;4.50;;;2.40;;
50976;SDS011;36992;48.200;12.418;2022-12-07T03:25:38;4.30;;;2.22;;
50976;SDS011;36992;48.200;12.418;2022-12-07T03:28:07;3.75;;;2.30;;
50976;SDS011;36992;48.200;12.418;2022-12-07T03:30:39;5.07;;;2.75;;
50976;SDS011;36992;48.200;12.418;2022-12-07T03:33:11;4.38;;;2.60;;
50976;SDS011;36992;48.200;12.418;2022-12-07T03:35:45;4.78;;;2.40;;
50976;SDS011;36992;48.200;12.418;2022-12-07T03:38:16;4.70;;;2.20;;
50976;SDS011;36992;48.200;12.418;2022-12-07T03:40:47;3.67;;;2.05;;
50976;SDS011;36992;48.200;12.418;2022-12-07T03:43:21;4.65;;;2.22;;
50976;SDS011;36992;48.200;12.418;2022-12-07T03:45:51;4.13;;;2.20;;
50976;SDS011;36992;48.200;12.418;2022-12-07T03:48:28;4.47;;;2.72;;
50976;SDS011;36992;48.200;12.418;2022-12-07T03:51:04;5.88;;;2.28;;
50976;SDS011;36992;48.200;12.418;2022-12-07T03:53:39;4.20;;;2.10;;
50976;SDS011;36992;48.200;12.418;2022-12-07T03:56:08;3.47;;;1.90;;
50976;SDS011;36992;48.200;12.418;2022-12-07T03:58:37;4.25;;;2.15;;
50976;SDS011;36992;48.200;12.418;2022-12-07T04:01:07;4.40;;;2.25;;
50976;SDS011;36992;48.200;12.418;2022-12-07T04:03:33;4.07;;;2.20;;
50976;SDS011;36992;48.200;12.418;2022-12-07T04:06:00;4.60;;;2.95;;
50976;SDS011;36992;48.200;12.418;2022-12-07T04:08:27;4.45;;;2.10;;
50976;SDS011;36992;48.200;12.418;2022-12-07T04:10:54;4.10;;;2.17;;
50976;SDS011;36992;48.200;12.418;2022-12-07T04:13:20;3.28;;;1.70;;
50976;SDS011;36992;48.200;12.418;2022-12-07T04:15:47;2.90;;;1.38;;
50976;SDS011;36992;48.200;12.418;2022-12-07T04:18:14;3.50;;;1.80;;
50976;SDS011;36992;48.200;12.418;2022-12-07T04:20:41;4.32;;;2.60;;
50976;SDS011;36992;48.200;12.418;2022-12-07T04:23:08;5.25;;;2.72;;
50976;SDS011;36992;48.200;12.418;2022-12-07T04:25:34;4.10;;;2.33;;
50976;SDS011;36992;48.200;12.418;2022-12-07T04:28:01;3.60;;;1.80;;
50976;SDS011;36992;48.200;12.418;2022-12-07T04:30:27;2.95;;;1.60;;
50976;SDS011;36992;48.200;12.418;2022-12-07T04:32:54;4.32;;;2.45;;
50976;SDS011;36992;48.200;12.418;2022-12-07T04:35:22;4.82;;;2.25;;
50976;SDS011;36992;48.200;12.418;2022-12-07T04:37:48;5.15;;;2.75;;
50976;SDS011;36992;48.200;12.418;2022-12-07T04:40:15;3.90;;;2.08;;
50976;SDS011;36992;48.200;12.418;2022-12-07T04:42:41;4.10;;;1.85;;
50976;SDS011;36992;48.200;12.418;2022-12-07T04:45:08;3.50;;;2.17;;
50976;SDS011;36992;48.200;12.418;2022-12-07T04:47:35;3.10;;;1.65;;
50976;SDS011;36992;48.200;12.418;2022-12-07T04:50:02;3.80;;;1.83;;
50976;SDS011;36992;48.200;12.418;2022-12-07T04:52:30;4.07;;;1.95;;
50976;SDS011;36992;48.200;12.418;2022-12-07T04:54:57;4.20;;;2.38;;
50976;SDS011;36992;48.200;12.418;2022-12-07T04:57:23;5.13;;;2.78;;
50976;SDS011;36992;48.200;12.418;2022-12-07T04:59:50;5.75;;;3.22;;
50976;SDS011;36992;48.200;12.418;2022-12-07T05:02:16;5.72;;;2.38;;
50976;SDS011;36992;48.200;12.418;2022-12-07T05:04:43;4.20;;;2.05;;
50976;SDS011;36992;48.200;12.418;2022-12-07T05:07:09;3.38;;;1.85;;
50976;SDS011;36992;48.200;12.418;2022-12-07T05:09:37;5.07;;;2.90;;
50976;SDS011;36992;48.200;12.418;2022-12-07T05:12:04;4.55;;;2.22;;
50976;SDS011;36992;48.200;12.418;2022-12-07T05:14:30;5.07;;;2.33;;
50976;SDS011;36992;48.200;12.418;2022-12-07T05:16:57;5.57;;;2.55;;
50976;SDS011;36992;48.200;12.418;2022-12-07T05:19:23;3.58;;;1.80;;
50976;SDS011;36992;48.200;12.418;2022-12-07T05:21:51;3.95;;;2.22;;
50976;SDS011;36992;48.200;12.418;2022-12-07T05:24:17;5.55;;;2.28;;
50976;SDS011;36992;48.200;12.418;2022-12-07T05:26:45;4.85;;;2.53;;
50976;SDS011;36992;48.200;12.418;2022-12-07T05:29:13;3.55;;;1.92;;
50976;SDS011;36992;48.200;12.418;2022-12-07T05:31:41;3.17;;;1.60;;
50976;SDS011;36992;48.200;12.418;2022-12-07T05:34:08;3.58;;;2.13;;
50976;SDS011;36992;48.200;12.418;2022-12-07T05:36:35;3.35;;;1.67;;
50976;SDS011;36992;48.200;12.418;2022-12-07T05:39:02;3.40;;;1.75;;
50976;SDS011;36992;48.200;12.418;2022-12-07T05:41:29;3.70;;;1.90;;
50976;SDS011;36992;48.200;12.418;2022-12-07T05:44:14;3.80;;;2.05;;
50976;SDS011;36992;48.200;12.418;2022-12-07T05:46:41;4.57;;;2.47;;
50976;SDS011;36992;48.200;12.418;2022-12-07T05:49:09;4.88;;;2.78;;
50976;SDS011;36992;48.200;12.418;2022-12-07T05:51:35;5.57;;;2.85;;
50976;SDS011;36992;48.200;12.418;2022-12-07T05:54:02;5.80;;;2.80;;
50976;SDS011;36992;48.200;12.418;2022-12-07T05:56:29;13.45;;;6.72;;
50976;SDS011;36992;48.200;12.418;2022-12-07T05:58:55;8.00;;;5.10;;
50976;SDS011;36992;48.200;12.418;2022-12-07T06:01:41;6.47;;;3.42;;
50976;SDS011;36992;48.200;12.418;2022-12-07T06:04:07;6.93;;;3.08;;
50976;SDS011;36992;48.200;12.418;2022-12-07T06:06:34;10.43;;;4.60;;
50976;SDS011;36992;48.200;12.418;2022-12-07T06:09:01;5.43;;;3.15;;
50976;SDS011;36992;48.200;12.418;2022-12-07T06:11:28;4.45;;;2.92;;
50976;SDS011;36992;48.200;12.418;2022-12-07T06:14:12;3.83;;;2.15;;
50976;SDS011;36992;48.200;12.418;2022-12-07T06:16:40;5.68;;;3.17;;
50976;SDS011;36992;48.200;12.418;2022-12-07T06:19:07;4.90;;;2.38;;
50976;SDS011;36992;48.200;12.418;2022-12-07T06:21:34;4.75;;;2.20;;
50976;SDS011;36992;48.200;12.418;2022-12-07T06:24:00;4.30;;;2.30;;
50976;SDS011;36992;48.200;12.418;2022-12-07T06:26:27;4.15;;;2.40;;
50976;SDS011;36992;48.200;12.418;2022-12-07T06:28:54;4.75;;;2.55;;
50976;SDS011;36992;48.200;12.418;2022-12-07T06:31:21;4.95;;;2.42;;
50976;SDS011;36992;48.200;12.418;2022-12-07T06:33:48;4.88;;;2.88;;
50976;SDS011;36992;48.200;12.418;2022-12-07T06:36:15;4.47;;;2.70;;
50976;SDS011;36992;48.200;12.418;2022-12-07T06:38:42;3.78;;;2.33;;
50976;SDS011;36992;48.200;12.418;2022-12-07T06:41:08;3.90;;;2.42;;
50976;SDS011;36992;48.200;12.418;2022-12-07T06:43:35;4.72;;;2.38;;
50976;SDS011;36992;48.200;12.418;2022-12-07T06:46:03;3.97;;;2.08;;
50976;SDS011;36992;48.200;12.418;2022-12-07T06:48:30;5.18;;;2.70;;
50976;SDS011;36992;48.200;12.418;2022-12-07T06:50:58;4.40;;;2.90;;
50976;SDS011;36992;48.200;12.418;2022-12-07T06:53:24;4.38;;;2.42;;
50976;SDS011;36992;48.200;12.418;2022-12-07T06:55:51;4.70;;;2.33;;
50976;SDS011;36992;48.200;12.418;2022-12-07T06:58:17;5.22;;;2.53;;
50976;SDS011;36992;48.200;12.418;2022-12-07T07:00:44;4.15;;;2.33;;
50976;SDS011;36992;48.200;12.418;2022-12-07T07:03:11;6.15;;;2.40;;
50976;SDS011;36992;48.200;12.418;2022-12-07T07:05:38;3.97;;;2.10;;
50976;SDS011;36992;48.200;12.418;2022-12-07T07:08:05;4.65;;;2.83;;
50976;SDS011;36992;48.200;12.418;2022-12-07T07:10:32;7.03;;;3.35;;
50976;SDS011;36992;48.200;12.418;2022-12-07T07:12:59;6.03;;;3.10;;
50976;SDS011;36992;48.200;12.418;2022-12-07T07:15:25;5.43;;;3.13;;
50976;SDS011;36992;48.200;12.418;2022-12-07T07:17:52;7.18;;;4.05;;
50976;SDS011;36992;48.200;12.418;2022-12-07T07:20:18;7.22;;;3.80;;
50976;SDS011;36992;48.200;12.418;2022-12-07T07:22:45;5.50;;;2.95;;
50976;SDS011;36992;48.200;12.418;2022-12-07T07:25:13;5.10;;;3.00;;
50976;SDS011;36992;48.200;12.418;2022-12-07T07:27:40;5.57;;;3.05;;
50976;SDS011;36992;48.200;12.418;2022-12-07T07:30:07;4.90;;;2.42;;
50976;SDS011;36992;48.200;12.418;2022-12-07T07:32:34;4.80;;;2.65;;
50976;SDS011;36992;48.200;12.418;2022-12-07T07:35:01;6.57;;;3.38;;
50976;SDS011;36992;48.200;12.418;2022-12-07T07:37:27;6.97;;;4.22;;
50976;SDS011;36992;48.200;12.418;2022-12-07T07:39:54;5.95;;;3.05;;
50976;SDS011;36992;48.200;12.418;2022-12-07T07:42:22;5.97;;;3.15;;
50976;SDS011;36992;48.200;12.418;2022-12-07T07:44:49;5.22;;;2.65;;
50976;SDS011;36992;48.200;12.418;2022-12-07T07:47:15;4.85;;;2.97;;
50976;SDS011;36992;48.200;12.418;2022-12-07T07:49:42;7.32;;;3.60;;
50976;SDS011;36992;48.200;12.418;2022-12-07T07:52:09;4.88;;;3.33;;
50976;SDS011;36992;48.200;12.418;2022-12-07T07:54:36;7.85;;;3.83;;
50976;SDS011;36992;48.200;12.418;2022-12-07T07:57:02;7.32;;;3.83;;
50976;SDS011;36992;48.200;12.418;2022-12-07T07:59:30;6.97;;;3.75;;
50976;SDS011;36992;48.200;12.418;2022-12-07T08:01:57;6.43;;;3.47;;
50976;SDS011;36992;48.200;12.418;2022-12-07T08:04:23;7.93;;;4.35;;
50976;SDS011;36992;48.200;12.418;2022-12-07T08:06:51;9.40;;;5.18;;
50976;SDS011;36992;48.200;12.418;2022-12-07T08:09:17;5.75;;;3.40;;
50976;SDS011;36992;48.200;12.418;2022-12-07T08:11:44;6.07;;;3.65;;
50976;SDS011;36992;48.200;12.418;2022-12-07T08:14:11;9.07;;;5.35;;
50976;SDS011;36992;48.200;12.418;2022-12-07T08:16:39;9.80;;;5.80;;
50976;SDS011;36992;48.200;12.418;2022-12-07T08:19:05;7.82;;;4.80;;
50976;SDS011;36992;48.200;12.418;2022-12-07T08:21:32;6.10;;;3.50;;
50976;SDS011;36992;48.200;12.418;2022-12-07T08:23:59;7.88;;;4.63;;
50976;SDS011;36992;48.200;12.418;2022-12-07T08:26:25;6.45;;;3.58;;
50976;SDS011;36992;48.200;12.418;2022-12-07T08:28:52;8.38;;;5.10;;
50976;SDS011;36992;48.200;12.418;2022-12-07T08:31:19;7.60;;;4.40;;
50976;SDS011;36992;48.200;12.418;2022-12-07T08:33:47;8.45;;;5.30;;
50976;SDS011;36992;48.200;12.418;2022-12-07T08:36:14;8.52;;;5.55;;
50976;SDS011;36992;48.200;12.418;2022-12-07T08:38:42;6.38;;;3.78;;
50976;SDS011;36992;48.200;12.418;2022-12-07T08:41:08;8.00;;;4.68;;
50976;SDS011;36992;48.200;12.418;2022-12-07T08:43:35;7.50;;;3.97;;
50976;SDS011;36992;48.200;12.418;2022-12-07T08:46:04;7.63;;;4.65;;
50976;SDS011;36992;48.200;12.418;2022-12-07T08:48:35;7.25;;;4.43;;
50976;SDS011;36992;48.200;12.418;2022-12-07T08:51:06;6.85;;;4.53;;
50976;SDS011;36992;48.200;12.418;2022-12-07T08:53:33;7.95;;;4.20;;
50976;SDS011;36992;48.200;12.418;2022-12-07T08:56:01;9.45;;;4.00;;
50976;SDS011;36992;48.200;12.418;2022-12-07T08:58:28;6.53;;;3.70;;
50976;SDS011;36992;48.200;12.418;2022-12-07T09:00:55;5.53;;;3.30;;
50976;SDS011;36992;48.200;12.418;2022-12-07T09:03:22;9.18;;;5.10;;
50976;SDS011;36992;48.200;12.418;2022-12-07T09:05:48;10.10;;;5.20;;
50976;SDS011;36992;48.200;12.418;2022-12-07T09:08:16;7.38;;;4.30;;
50976;SDS011;36992;48.200;12.418;2022-12-07T09:10:43;6.70;;;3.88;;
50976;SDS011;36992;48.200;12.418;2022-12-07T09:13:09;7.60;;;4.03;;
50976;SDS011;36992;48.200;12.418;2022-12-07T09:15:36;6.03;;;3.55;;
50976;SDS011;36992;48.200;12.418;2022-12-07T09:18:02;6.57;;;3.42;;
50976;SDS011;36992;48.200;12.418;2022-12-07T09:20:29;6.30;;;3.25;;
50976;SDS011;36992;48.200;12.418;2022-12-07T09:22:56;7.38;;;3.72;;
50976;SDS011;36992;48.200;12.418;2022-12-07T09:25:23;6.72;;;3.47;;
50976;SDS011;36992;48.200;12.418;2022-12-07T09:27:54;7.53;;;4.22;;
50976;SDS011;36992;48.200;12.418;2022-12-07T09:30:22;7.55;;;4.88;;
50976;SDS011;36992;48.200;12.418;2022-12-07T09:32:48;6.63;;;3.90;;
50976;SDS011;36992;48.200;12.418;2022-12-07T09:35:15;6.03;;;3.72;;
50976;SDS011;36992;48.200;12.418;2022-12-07T09:37:42;6.72;;;3.80;;
50976;SDS011;36992;48.200;12.418;2022-12-07T09:40:08;8.48;;;4.32;;
50976;SDS011;36992;48.200;12.418;2022-12-07T09:42:38;8.75;;;5.22;;
50976;SDS011;36992;48.200;12.418;2022-12-07T09:45:12;8.30;;;5.10;;
50976;SDS011;36992;48.200;12.418;2022-12-07T09:47:41;7.25;;;4.45;;
50976;SDS011;36992;48.200;12.418;2022-12-07T09:50:12;8.27;;;4.13;;
50976;SDS011;36992;48.200;12.418;2022-12-07T09:52:41;7.50;;;3.83;;
50976;SDS011;36992;48.200;12.418;2022-12-07T09:55:10;8.13;;;4.28;;
50976;SDS011;36992;48.200;12.418;2022-12-07T09:57:40;7.57;;;4.80;;
50976;SDS011;36992;48.200;12.418;2022-12-07T10:00:10;7.38;;;4.57;;
50976;SDS011;36992;48.200;12.418;2022-12-07T10:02:40;7.95;;;4.45;;
50976;SDS011;36992;48.200;12.418;2022-12-07T10:05:12;6.90;;;3.83;;
50976;SDS011;36992;48.200;12.418;2022-12-07T10:07:41;6.53;;;4.53;;
50976;SDS011;36992;48.200;12.418;2022-12-07T10:10:12;8.45;;;4.88;;
50976;SDS011;36992;48.200;12.418;2022-12-07T10:12:58;5.70;;;3.22;;
50976;SDS011;36992;48.200;12.418;2022-12-07T10:15:42;5.40;;;3.38;;
50976;SDS011;36992;48.200;12.418;2022-12-07T10:21:02;6.53;;;4.15;;
50976;SDS011;36992;48.200;12.418;2022-12-07T10:23:41;6.82;;;3.80;;
50976;SDS011;36992;48.200;12.418;2022-12-07T10:26:26;5.57;;;2.92;;
50976;SDS011;36992;48.200;12.418;2022-12-07T10:28:56;4.80;;;2.75;;
50976;SDS011;36992;48.200;12.418;2022-12-07T10:31:25;7.75;;;4.82;;
50976;SDS011;36992;48.200;12.418;2022-12-07T10:33:53;5.63;;;3.60;;
50976;SDS011;36992;48.200;12.418;2022-12-07T10:36:23;4.72;;;3.00;;
50976;SDS011;36992;48.200;12.418;2022-12-07T10:38:52;6.57;;;3.90;;
50976;SDS011;36992;48.200;12.418;2022-12-07T10:41:25;4.85;;;2.95;;
50976;SDS011;36992;48.200;12.418;2022-12-07T10:43:52;7.93;;;4.30;;
50976;SDS011;36992;48.200;12.418;2022-12-07T10:46:41;5.25;;;3.38;;
50976;SDS011;36992;48.200;12.418;2022-12-07T10:49:23;6.38;;;3.67;;
50976;SDS011;36992;48.200;12.418;2022-12-07T10:52:09;5.75;;;3.38;;
50976;SDS011;36992;48.200;12.418;2022-12-07T10:54:45;7.13;;;3.95;;
50976;SDS011;36992;48.200;12.418;2022-12-07T10:57:26;8.30;;;4.65;;
50976;SDS011;36992;48.200;12.418;2022-12-07T11:00:09;6.78;;;3.72;;
50976;SDS011;36992;48.200;12.418;2022-12-07T11:05:44;7.78;;;4.25;;
50976;SDS011;36992;48.200;12.418;2022-12-07T11:08:18;11.27;;;4.50;;
50976;SDS011;36992;48.200;12.418;2022-12-07T11:10:53;7.05;;;4.05;;
50976;SDS011;36992;48.200;12.418;2022-12-07T11:13:27;5.95;;;3.70;;
50976;SDS011;36992;48.200;12.418;2022-12-07T11:16:08;6.25;;;3.40;;
50976;SDS011;36992;48.200;12.418;2022-12-07T11:18:48;5.72;;;3.30;;
50976;SDS011;36992;48.200;12.418;2022-12-07T11:21:27;5.82;;;3.55;;
50976;SDS011;36992;48.200;12.418;2022-12-07T11:24:01;7.50;;;4.33;;
50976;SDS011;36992;48.200;12.418;2022-12-07T11:26:34;6.95;;;4.15;;
50976;SDS011;36992;48.200;12.418;2022-12-07T11:29:19;5.93;;;3.55;;
50976;SDS011;36992;48.200;12.418;2022-12-07T11:31:58;8.30;;;5.28;;
50976;SDS011;36992;48.200;12.418;2022-12-07T11:34:38;6.22;;;3.70;;
50976;SDS011;36992;48.200;12.418;2022-12-07T11:37:12;6.10;;;3.30;;
50976;SDS011;36992;48.200;12.418;2022-12-07T11:39:44;5.32;;;3.42;;
50976;SDS011;36992;48.200;12.418;2022-12-07T11:42:16;5.10;;;3.42;;
50976;SDS011;36992;48.200;12.418;2022-12-07T11:44:49;5.28;;;3.03;;
50976;SDS011;36992;48.200;12.418;2022-12-07T11:47:21;9.02;;;4.85;;
50976;SDS011;36992;48.200;12.418;2022-12-07T11:49:56;8.13;;;4.13;;
50976;SDS011;36992;48.200;12.418;2022-12-07T11:52:30;6.43;;;3.63;;
50976;SDS011;36992;48.200;12.418;2022-12-07T11:55:16;7.20;;;4.50;;
50976;SDS011;36992;48.200;12.418;2022-12-07T11:57:49;6.32;;;3.42;;
50976;SDS011;36992;48.200;12.418;2022-12-07T12:00:23;4.50;;;2.78;;
50976;SDS011;36992;48.200;12.418;2022-12-07T12:02:51;8.25;;;4.53;;
50976;SDS011;36992;48.200;12.418;2022-12-07T12:05:25;6.65;;;4.07;;
50976;SDS011;36992;48.200;12.418;2022-12-07T12:07:55;6.68;;;3.75;;
50976;SDS011;36992;48.200;12.418;2022-12-07T12:10:30;4.95;;;3.10;;
50976;SDS011;36992;48.200;12.418;2022-12-07T12:13:14;4.95;;;3.10;;
50976;SDS011;36992;48.200;12.418;2022-12-07T12:16:14;5.63;;;3.22;;
50976;SDS011;36992;48.200;12.418;2022-12-07T12:19:00;5.70;;;2.65;;
50976;SDS011;36992;48.200;12.418;2022-12-07T12:21:44;7.47;;;3.33;;
50976;SDS011;36992;48.200;12.418;2022-12-07T12:24:15;6.03;;;3.60;;
50976;SDS011;36992;48.200;12.418;2022-12-07T12:26:48;5.20;;;2.90;;
50976;SDS011;36992;48.200;12.418;2022-12-07T12:29:19;5.13;;;2.70;;
50976;SDS011;36992;48.200;12.418;2022-12-07T12:32:04;5.82;;;3.15;;
50976;SDS011;36992;48.200;12.418;2022-12-07T12:34:39;5.83;;;3.07;;
50976;SDS011;36992;48.200;12.418;2022-12-07T12:37:17;5.25;;;2.85;;
50976;SDS011;36992;48.200;12.418;2022-12-07T12:40:24;5.55;;;3.08;;
50976;SDS011;36992;48.200;12.418;2022-12-07T12:57:46;4.60;;;2.13;;
50976;SDS011;36992;48.200;12.418;2022-12-07T13:00:17;5.32;;;2.80;;
50976;SDS011;36992;48.200;12.418;2022-12-07T13:02:48;4.50;;;2.35;;
50976;SDS011;36992;48.200;12.418;2022-12-07T13:05:18;7.18;;;3.28;;
50976;SDS011;36992;48.200;12.418;2022-12-07T13:07:53;5.63;;;3.25;;
50976;SDS011;36992;48.200;12.418;2022-12-07T13:10:27;5.70;;;2.97;;
50976;SDS011;36992;48.200;12.418;2022-12-07T13:13:00;4.32;;;2.70;;
50976;SDS011;36992;48.200;12.418;2022-12-07T13:15:48;6.53;;;2.63;;
50976;SDS011;36992;48.200;12.418;2022-12-07T13:18:22;5.72;;;2.75;;
50976;SDS011;36992;48.200;12.418;2022-12-07T13:20:51;3.95;;;2.05;;
50976;SDS011;36992;48.200;12.418;2022-12-07T13:23:20;6.78;;;2.55;;
50976;SDS011;36992;48.200;12.418;2022-12-07T13:25:53;4.20;;;2.10;;
50976;SDS011;36992;48.200;12.418;2022-12-07T13:28:25;5.68;;;2.72;;
50976;SDS011;36992;48.200;12.418;2022-12-07T13:31:09;5.10;;;2.78;;
50976;SDS011;36992;48.200;12.418;2022-12-07T13:33:42;6.18;;;3.10;;
50976;SDS011;36992;48.200;12.418;2022-12-07T13:36:11;9.13;;;4.30;;
50976;SDS011;36992;48.200;12.418;2022-12-07T13:38:48;9.33;;;4.80;;
50976;SDS011;36992;48.200;12.418;2022-12-07T13:41:21;9.07;;;4.35;;
50976;SDS011;36992;48.200;12.418;2022-12-07T13:43:51;7.70;;;3.75;;
50976;SDS011;36992;48.200;12.418;2022-12-07T13:46:21;6.95;;;3.60;;
50976;SDS011;36992;48.200;12.418;2022-12-07T13:48:52;8.00;;;4.05;;
50976;SDS011;36992;48.200;12.418;2022-12-07T13:51:21;7.25;;;3.72;;
50976;SDS011;36992;48.200;12.418;2022-12-07T13:53:50;6.32;;;3.28;;
50976;SDS011;36992;48.200;12.418;2022-12-07T13:56:18;4.72;;;2.53;;
50976;SDS011;36992;48.200;12.418;2022-12-07T13:58:48;4.75;;;2.15;;
50976;SDS011;36992;48.200;12.418;2022-12-07T14:01:15;5.20;;;2.28;;
50976;SDS011;36992;48.200;12.418;2022-12-07T14:03:41;6.18;;;3.20;;
50976;SDS011;36992;48.200;12.418;2022-12-07T14:06:15;5.65;;;2.85;;
50976;SDS011;36992;48.200;12.418;2022-12-07T14:08:50;7.07;;;2.72;;
50976;SDS011;36992;48.200;12.418;2022-12-07T14:11:17;6.25;;;3.15;;
50976;SDS011;36992;48.200;12.418;2022-12-07T14:16:33;6.07;;;3.00;;
50976;SDS011;36992;48.200;12.418;2022-12-07T14:19:01;5.43;;;2.92;;
50976;SDS011;36992;48.200;12.418;2022-12-07T14:21:30;5.05;;;2.65;;
50976;SDS011;36992;48.200;12.418;2022-12-07T14:24:04;4.75;;;2.20;;
50976;SDS011;36992;48.200;12.418;2022-12-07T14:26:36;4.25;;;2.05;;
50976;SDS011;36992;48.200;12.418;2022-12-07T14:29:21;5.32;;;2.38;;
50976;SDS011;36992;48.200;12.418;2022-12-07T14:31:55;5.28;;;2.72;;
50976;SDS011;36992;48.200;12.418;2022-12-07T14:34:23;4.78;;;2.20;;
50976;SDS011;36992;48.200;12.418;2022-12-07T14:36:49;5.13;;;2.22;;
50976;SDS011;36992;48.200;12.418;2022-12-07T14:39:17;5.10;;;2.22;;
50976;SDS011;36992;48.200;12.418;2022-12-07T14:41:43;5.28;;;1.95;;
50976;SDS011;36992;48.200;12.418;2022-12-07T14:44:19;2.97;;;1.10;;
50976;SDS011;36992;48.200;12.418;2022-12-07T14:46:49;4.15;;;1.10;;
50976;SDS011;36992;48.200;12.418;2022-12-07T14:49:16;4.50;;;1.80;;
50976;SDS011;36992;48.200;12.418;2022-12-07T14:51:43;4.45;;;1.92;;
50976;SDS011;36992;48.200;12.418;2022-12-07T14:54:16;3.83;;;1.80;;
50976;SDS011;36992;48.200;12.418;2022-12-07T14:56:44;5.47;;;2.42;;
50976;SDS011;36992;48.200;12.418;2022-12-07T14:59:14;4.20;;;1.88;;
50976;SDS011;36992;48.200;12.418;2022-12-07T15:01:43;4.38;;;1.98;;
50976;SDS011;36992;48.200;12.418;2022-12-07T15:04:10;5.35;;;2.42;;
50976;SDS011;36992;48.200;12.418;2022-12-07T15:06:37;4.15;;;2.33;;
50976;SDS011;36992;48.200;12.418;2022-12-07T15:09:04;5.35;;;2.13;;
50976;SDS011;36992;48.200;12.418;2022-12-07T15:11:30;3.80;;;1.67;;
50976;SDS011;36992;48.200;12.418;2022-12-07T15:13:57;5.25;;;2.15;;
50976;SDS011;36992;48.200;12.418;2022-12-07T15:16:37;4.30;;;1.92;;
50976;SDS011;36992;48.200;12.418;2022-12-07T15:19:07;3.95;;;2.03;;